Weather History for Bend, OR

Change the Weather History Date:

Monday, April 30, 2012

  Actual Average (KRDM) Record (KRDM)
Temperature  
Mean Temperature 47 °F 47 °F  
Max Temperature 57 °F 63 °F 88 °F (1998)
Min Temperature 37 °F 32 °F 16 °F (1969)
Degree Days  
Heating Degree Days 18 18  
Month to date heating degree days 620  
Since 1 July heating degree days 6071  
Cooling Degree Days 0 0  
Month to date cooling degree days 0  
Year to date cooling degree days 0  
Moisture  
Dew Point 27 °F    
Average Humidity 41    
Maximum Humidity 66    
Minimum Humidity 28    
Precipitation  
Precipitation 0.00 in 0.03 in 0.35 in (1989)
Month to date precipitation 0.73  
Year to date precipitation 3.01  
Sea Level Pressure  
Sea Level Pressure 29.84 in    
Wind  
Wind Speed 14 mph (SW)    
Max Wind Speed 24 mph    
Max Gust Speed 36 mph    
Visibility 10 miles    
Events Rain    
T = Trace of Precipitation, MM = Missing Value Source: NWS Daily Summary

Daily Weather History Graph

Daily Weather History Graph

Search for Another Location

Airport:

Trip Planner

Search our weather history database for the weather conditions in past years. The results will help you decide how hot, cold, wet, or windy it might be!

Date:

Astronomy

Apr. 30, 2012 Rise Set
Actual Time 5:56 AM PDT 8:07 PM PDT
Civil Twilight 5:25 AM PDT 8:39 PM PDT
Nautical Twilight 4:46 AM PDT 9:18 PM PDT
Astronomical Twilight 4:02 AM PDT 10:02 PM PDT
Moon 1:58 PM PDT (4/30) 2:37 AM PDT (4/30)
Length of Visible Light 15h 14m
Length of Day
14h 11m
Waxing Gibbous, 65% of the Moon is Illuminated
Apr 30
Waxing Gibbous
May 5
Full
May 12
Last Quarter
May 20
New
May 28
First Quarter

Hourly Weather History & Observations

Time (PDT) Temp. Windchill Dew Point Humidity Pressure Visibility Wind Dir Wind Speed Gust Speed Precip Events Conditions
12:15 AM 51.8 °F - 35.6 °F 54% 29.88 in 10.0 mi SSW 16.1 mph - N/A   Clear
12:35 AM 53.6 °F - 32.0 °F 44% 29.88 in 10.0 mi SSW 16.1 mph - N/A   Clear
12:55 AM 53.6 °F - 32.0 °F 44% 29.87 in 10.0 mi South 9.2 mph - N/A   Clear
1:15 AM 53.6 °F - 28.4 °F 38% 29.86 in 10.0 mi SSW 10.4 mph - N/A Rain Light Rain
1:35 AM 53.6 °F - 23.0 °F 30% 29.85 in 10.0 mi WSW 18.4 mph 26.5 mph N/A   Clear
1:55 AM 53.6 °F - 21.2 °F 28% 29.85 in 10.0 mi SW 9.2 mph 21.9 mph N/A   Clear
2:15 AM 53.6 °F - 23.0 °F 30% 29.84 in 10.0 mi SSW 9.2 mph - N/A   Clear
2:35 AM 51.8 °F - 24.8 °F 35% 29.81 in 10.0 mi South 9.2 mph - N/A   Clear
2:55 AM 53.6 °F - 24.8 °F 33% 29.80 in 10.0 mi South 9.2 mph - N/A   Clear
3:15 AM 53.6 °F - 24.8 °F 33% 29.79 in 10.0 mi SSW 10.4 mph - N/A   Clear
3:35 AM 53.6 °F - 28.4 °F 38% 29.79 in 10.0 mi SW 15.0 mph 20.7 mph N/A   Clear
3:55 AM 50.0 °F - 32.0 °F 50% 29.79 in 10.0 mi SW 18.4 mph 27.6 mph N/A   Clear
4:15 AM 50.0 °F - 33.8 °F 54% 29.80 in 10.0 mi SSW 18.4 mph 25.3 mph N/A   Partly Cloudy
4:35 AM 50.0 °F - 35.6 °F 58% 29.80 in 10.0 mi SSW 17.3 mph - N/A   Mostly Cloudy
4:55 AM 50.0 °F - 37.4 °F 62% 29.79 in 10.0 mi SSW 18.4 mph - N/A   Partly Cloudy
5:15 AM 48.2 °F - 37.4 °F 66% 29.78 in 10.0 mi SSW 15.0 mph - N/A   Clear
5:35 AM 48.2 °F - 37.4 °F 66% 29.77 in 10.0 mi SSW 18.4 mph - N/A   Clear
5:55 AM 48.2 °F - 37.4 °F 66% 29.77 in 10.0 mi SSW 16.1 mph - N/A   Scattered Clouds
6:15 AM 50.0 °F - 37.4 °F 62% 29.77 in 10.0 mi SSW 16.1 mph 26.5 mph N/A   Scattered Clouds
6:35 AM 50.0 °F - 35.6 °F 58% 29.77 in 10.0 mi SW 13.8 mph - N/A   Partly Cloudy
6:55 AM 50.0 °F - 35.6 °F 58% 29.78 in 10.0 mi WSW 6.9 mph 18.4 mph N/A   Clear
7:15 AM 50.0 °F - 35.6 °F 58% 29.78 in 10.0 mi WNW 4.6 mph - N/A   Clear
7:35 AM 50.0 °F - 33.8 °F 54% 29.78 in 10.0 mi West 4.6 mph - N/A   Clear
7:55 AM 53.6 °F - 32.0 °F 44% 29.78 in 10.0 mi West 12.7 mph 18.4 mph N/A   Clear
8:15 AM 53.6 °F - 32.0 °F 44% 29.78 in 10.0 mi West 10.4 mph 26.5 mph N/A   Partly Cloudy
8:35 AM 53.6 °F - 30.2 °F 41% 29.79 in 10.0 mi West 19.6 mph 26.5 mph N/A   Partly Cloudy
8:55 AM 53.6 °F - 28.4 °F 38% 29.79 in 10.0 mi WSW 15.0 mph 25.3 mph N/A   Scattered Clouds
9:15 AM 53.6 °F - 28.4 °F 38% 29.80 in 10.0 mi WSW 13.8 mph 26.5 mph N/A   Scattered Clouds
9:35 AM 53.6 °F - 28.4 °F 38% 29.79 in 10.0 mi WSW 21.9 mph 31.1 mph N/A   Partly Cloudy
9:55 AM 53.6 °F - 28.4 °F 38% 29.80 in 10.0 mi WSW 19.6 mph 29.9 mph N/A   Clear
10:15 AM 53.6 °F - 28.4 °F 38% 29.80 in 9.0 mi WSW 19.6 mph 31.1 mph N/A   Clear
10:35 AM 53.6 °F - 26.6 °F 35% 29.81 in 9.0 mi SW 24.2 mph 34.5 mph N/A   Clear
10:55 AM 53.6 °F - 28.4 °F 38% 29.81 in 7.0 mi WSW 19.6 mph 33.4 mph N/A   Clear
11:15 AM 53.6 °F - 28.4 °F 38% 29.83 in 10.0 mi SW 20.7 mph 26.5 mph N/A   Clear
11:35 AM 53.6 °F - 24.8 °F 33% 29.83 in 10.0 mi WSW 19.6 mph 31.1 mph N/A   Clear
11:55 AM 55.4 °F - 26.6 °F 33% 29.83 in 10.0 mi WSW 19.6 mph 27.6 mph N/A   Clear
12:15 PM 57.2 °F - 28.4 °F 33% 29.82 in 10.0 mi SW 21.9 mph 27.6 mph N/A   Clear
12:35 PM 55.4 °F - 26.6 °F 33% 29.82 in 10.0 mi WSW 16.1 mph 21.9 mph N/A   Clear
12:55 PM 57.2 °F - 26.6 °F 31% 29.82 in 8.0 mi WSW 19.6 mph 29.9 mph N/A   Scattered Clouds
1:15 PM 57.2 °F - 26.6 °F 31% 29.82 in 6.0 mi West 16.1 mph 25.3 mph N/A   Haze
1:35 PM 57.2 °F - 24.8 °F 29% 29.83 in 10.0 mi WSW 18.4 mph 28.8 mph N/A   Partly Cloudy
1:55 PM 57.2 °F - 26.6 °F 31% 29.83 in 10.0 mi SW 21.9 mph 29.9 mph N/A   Scattered Clouds
2:15 PM 57.2 °F - 24.8 °F 29% 29.83 in 10.0 mi West 24.2 mph 29.9 mph N/A   Scattered Clouds
2:35 PM 55.4 °F - 24.8 °F 31% 29.84 in 10.0 mi WSW 18.4 mph 28.8 mph N/A   Clear
3:15 PM 55.4 °F - 26.6 °F 33% 29.83 in 7.0 mi SW 17.3 mph 21.9 mph N/A   Partly Cloudy
3:35 PM 55.4 °F - 26.6 °F 33% 29.83 in 10.0 mi SW 18.4 mph 26.5 mph N/A   Scattered Clouds
4:15 PM 57.2 °F - 26.6 °F 31% 29.83 in 10.0 mi West 24.2 mph 34.5 mph N/A   Partly Cloudy
4:35 PM 55.4 °F - 24.8 °F 31% 29.83 in 10.0 mi WSW 24.2 mph 35.7 mph N/A   Clear
4:55 PM 55.4 °F - 24.8 °F 31% 29.83 in 10.0 mi WSW 19.6 mph 31.1 mph N/A   Clear
5:15 PM 55.4 °F - 23.0 °F 29% 29.83 in 9.0 mi WSW 21.9 mph 34.5 mph N/A   Clear
5:35 PM 53.6 °F - 23.0 °F 30% 29.84 in 10.0 mi WSW 21.9 mph 31.1 mph N/A   Clear
5:55 PM 53.6 °F - 21.2 °F 28% 29.84 in 10.0 mi WSW 18.4 mph 28.8 mph N/A   Clear
6:15 PM 53.6 °F - 23.0 °F 30% 29.85 in 10.0 mi West 17.3 mph 23.0 mph N/A   Clear
6:35 PM 51.8 °F - 24.8 °F 35% 29.85 in 10.0 mi SW 24.2 mph 32.2 mph N/A   Partly Cloudy
6:55 PM 50.0 °F - 24.8 °F 37% 29.86 in 10.0 mi WSW 11.5 mph 19.6 mph N/A   Scattered Clouds
7:15 PM 50.0 °F - 23.0 °F 35% 29.86 in 10.0 mi West 11.5 mph 20.7 mph N/A   Mostly Cloudy
7:35 PM 48.2 °F - 26.6 °F 43% 29.87 in 10.0 mi NNW 6.9 mph - N/A   Mostly Cloudy
7:55 PM 46.4 °F 45.2 °F 26.6 °F 46% 29.87 in 10.0 mi North 3.5 mph - N/A   Overcast
8:15 PM 46.4 °F 42.9 °F 26.6 °F 46% 29.88 in 10.0 mi SSW 6.9 mph - N/A   Mostly Cloudy
8:35 PM 46.4 °F 42.9 °F 24.8 °F 43% 29.89 in 10.0 mi SW 6.9 mph - N/A   Partly Cloudy
8:55 PM 44.6 °F 43.1 °F 24.8 °F 46% 29.90 in 10.0 mi NW 3.5 mph - N/A   Clear
9:15 PM 44.6 °F - 23.0 °F 43% 29.91 in 10.0 mi Calm Calm - N/A   Scattered Clouds
9:35 PM 44.6 °F 40.7 °F 19.4 °F 37% 29.92 in 10.0 mi SW 6.9 mph - N/A   Mostly Cloudy
9:55 PM 42.8 °F 36.2 °F 21.2 °F 42% 29.93 in 10.0 mi WSW 12.7 mph - N/A   Scattered Clouds
10:15 PM 41.0 °F - 19.4 °F 42% 29.93 in 10.0 mi Calm Calm - N/A   Clear
10:35 PM 41.0 °F 38.0 °F 21.2 °F 45% 29.93 in 10.0 mi North 4.6 mph - N/A   Clear
10:55 PM 39.2 °F - 21.2 °F 49% 29.94 in 10.0 mi Calm Calm - N/A   Clear
11:15 PM 37.4 °F - 23.0 °F 56% 29.94 in 10.0 mi Calm Calm - N/A   Clear
11:35 PM 37.4 °F - 21.2 °F 52% 29.94 in 10.0 mi Calm Calm - N/A   Clear
11:55 PM 37.4 °F 33.8 °F 19.4 °F 48% 29.94 in 10.0 mi SW 4.6 mph - N/A   Clear